Time;durP1;ratioP1;P1;durP2;ratioP2;P2;SDS_P1;SDS_P2;PMS_P1;PMS_P2;Temp;Humidity;BMP_temperature;BMP_pressure;BME280_temperature;BME280_humidity;BME280_pressure;Samples;Min_cycle;Max_cycle;Signal;HPM_P1;HPM_P2
2022/05/30 00:01:23;;;;;;;1.63;1.45;;;12.80;99.90;;;;;;5090350;28;20024;-73
2022/05/30 00:03:49;;;;;;;0.98;0.65;;;12.80;99.90;;;;;;5089846;28;20075;-72
2022/05/30 00:06:21;;;;;;;0.73;0.73;;;12.70;99.90;;;;;;5080787;28;20029;-72
2022/05/30 00:08:51;;;;;;;1.10;0.82;;;12.60;99.90;;;;;;5090098;28;20032;-72
2022/05/30 00:11:28;;;;;;;0.88;0.70;;;12.60;99.90;;;;;;5093415;28;20032;-72
2022/05/30 00:13:54;;;;;;;0.28;0.28;;;12.50;99.90;;;;;;5092796;28;20376;-71
2022/05/30 00:16:29;;;;;;;1.45;1.20;;;12.50;99.90;;;;;;5090973;28;20492;-72
2022/05/30 00:19:04;;;;;;;0.43;0.43;;;12.60;99.90;;;;;;5090954;28;20107;-71
2022/05/30 00:21:38;;;;;;;1.48;0.63;;;12.60;99.90;;;;;;5086367;28;20379;-71
2022/05/30 00:24:05;;;;;;;2.42;2.22;;;12.60;99.90;;;;;;5086368;28;20024;-72
2022/05/30 00:26:34;;;;;;;0.00;0.00;;;12.70;99.90;;;;;;5076763;28;20035;-72
2022/05/30 00:29:07;;;;;;;0.88;0.88;;;12.70;99.90;;;;;;5073169;28;20059;-72
2022/05/30 00:31:43;;;;;;;0.73;0.73;;;12.80;99.90;;;;;;5077370;28;20039;-72
2022/05/30 00:34:12;;;;;;;0.90;0.52;;;12.90;99.90;;;;;;5092423;28;20389;-72
2022/05/30 00:36:41;;;;;;;3.63;0.77;;;12.80;99.90;;;;;;5088954;28;20100;-72
2022/05/30 00:39:14;;;;;;;2.53;1.75;;;12.70;99.90;;;;;;5072871;28;20017;-72
2022/05/30 00:41:50;;;;;;;1.55;1.45;;;12.70;99.90;;;;;;5073051;28;20036;-71
2022/05/30 00:44:21;;;;;;;0.52;0.35;;;12.70;99.90;;;;;;5072938;28;20028;-72
2022/05/30 00:46:48;;;;;;;0.10;0.10;;;12.70;99.90;;;;;;5074952;28;20021;-71
2022/05/30 00:49:25;;;;;;;1.48;0.70;;;12.80;99.90;;;;;;5085507;28;20025;-72
2022/05/30 00:52:02;;;;;;;0.00;0.00;;;12.90;99.90;;;;;;5091173;28;20118;-72
2022/05/30 00:54:52;;;;;;;2.42;2.00;;;13.00;99.90;;;;;;5084047;28;20039;-72
2022/05/30 00:57:25;;;;;;;1.50;0.95;;;13.10;99.90;;;;;;5089401;28;20028;-71
2022/05/30 01:00:11;;;;;;;5.45;3.40;;;13.00;99.90;;;;;;5085931;28;20020;-72
2022/05/30 01:02:39;;;;;;;1.08;0.60;;;12.90;99.90;;;;;;5088463;28;20433;-72
2022/05/30 01:08:01;;;;;;;3.00;2.50;;;13.10;99.90;;;;;;5087419;28;20042;-72
2022/05/30 01:10:28;;;;;;;6.93;5.15;;;13.70;99.90;;;;;;5090585;28;20024;-72
2022/05/30 01:13:00;;;;;;;4.03;3.22;;;14.30;99.90;;;;;;5095201;28;20105;-72
2022/05/30 01:15:39;;;;;;;1.65;1.13;;;14.30;99.90;;;;;;5088426;28;20028;-72
2022/05/30 01:18:14;;;;;;;0.63;0.47;;;14.50;99.90;;;;;;5089985;28;20032;-73
2022/05/30 01:21:17;;;;;;;0.00;0.00;;;15.30;99.90;;;;;;5096000;28;20027;-72
2022/05/30 01:24:14;;;;;;;0.15;0.15;;;16.00;99.90;;;;;;5094203;28;20038;-73
2022/05/30 01:27:09;;;;;;;0.43;0.32;;;16.40;99.90;;;;;;5093742;28;20036;-73
2022/05/30 01:29:45;;;;;;;2.67;1.20;;;16.50;99.90;;;;;;5095516;28;20035;-73
2022/05/30 01:32:21;;;;;;;1.48;1.38;;;15.70;99.90;;;;;;5095509;28;20156;-72
2022/05/30 01:34:50;;;;;;;0.75;0.75;;;15.10;99.90;;;;;;5095413;28;20522;-72
2022/05/30 01:37:17;;;;;;;0.40;0.40;;;14.90;99.90;;;;;;5090085;28;20021;-73
2022/05/30 01:39:46;;;;;;;0.82;0.70;;;14.90;99.90;;;;;;5088765;28;20020;-73
2022/05/30 01:42:16;;;;;;;0.75;0.75;;;15.00;99.90;;;;;;5091640;28;20020;-73
2022/05/30 01:44:50;;;;;;;0.00;0.00;;;14.90;99.90;;;;;;5093138;28;20380;-73
2022/05/30 01:47:24;;;;;;;4.20;2.15;;;14.80;99.90;;;;;;5086942;28;20049;-74
2022/05/30 01:49:58;;;;;;;0.10;0.10;;;15.10;99.90;;;;;;5090965;28;20103;-74
2022/05/30 01:52:31;;;;;;;2.00;1.90;;;15.20;99.90;;;;;;5089888;28;20071;-73
2022/05/30 01:55:00;;;;;;;0.00;0.00;;;15.50;99.90;;;;;;5091135;28;20044;-74
2022/05/30 01:57:30;;;;;;;0.93;0.90;;;15.60;99.90;;;;;;5089991;28;20020;-73
2022/05/30 01:59:59;;;;;;;0.22;0.13;;;16.00;99.90;;;;;;5091856;28;20064;-74
2022/05/30 02:02:31;;;;;;;0.00;0.00;;;16.00;99.90;;;;;;5091374;28;20016;-74
2022/05/30 02:04:59;;;;;;;0.00;0.00;;;16.10;99.90;;;;;;5071457;28;20028;-74
2022/05/30 02:07:34;;;;;;;0.00;0.00;;;16.00;99.90;;;;;;5090574;28;20487;-74
2022/05/30 02:10:21;;;;;;;0.00;0.00;;;16.10;99.90;;;;;;5088261;28;20036;-74
2022/05/30 02:12:49;;;;;;;1.50;0.98;;;16.40;99.90;;;;;;5085195;28;20036;-74
2022/05/30 02:15:23;;;;;;;0.52;0.52;;;16.80;99.90;;;;;;5087022;28;20027;-74
2022/05/30 02:17:57;;;;;;;2.08;1.42;;;16.50;99.90;;;;;;5084294;28;20031;-74
2022/05/30 02:20:39;;;;;;;0.00;0.00;;;16.50;99.90;;;;;;5085561;28;20024;-73
2022/05/30 02:23:14;;;;;;;0.00;0.00;;;15.50;99.90;;;;;;5088155;28;20020;-74
2022/05/30 02:25:44;;;;;;;0.80;0.73;;;16.50;99.90;;;;;;5086535;28;20047;-73
2022/05/30 02:28:21;;;;;;;14.07;7.43;;;17.10;99.90;;;;;;5087150;28;20043;-73
2022/05/30 02:31:08;;;;;;;0.35;0.35;;;17.00;99.90;;;;;;5082644;28;20511;-74
2022/05/30 02:36:53;;;;;;;0.00;0.00;;;16.20;99.90;;;;;;5090771;28;20365;-74
2022/05/30 02:39:26;;;;;;;0.00;0.00;;;16.70;99.90;;;;;;5091457;28;20028;-74
2022/05/30 02:42:07;;;;;;;0.82;0.73;;;17.30;99.90;;;;;;5086632;28;20047;-74
2022/05/30 02:44:47;;;;;;;0.00;0.00;;;17.10;99.90;;;;;;5085527;28;20043;-74
2022/05/30 02:47:13;;;;;;;0.10;0.10;;;17.10;99.90;;;;;;5078385;28;20483;-73
2022/05/30 02:49:42;;;;;;;0.00;0.00;;;17.50;99.90;;;;;;5061075;28;20405;-73
2022/05/30 02:52:40;;;;;;;0.00;0.00;;;18.40;99.90;;;;;;5078323;28;20063;-73
2022/05/30 02:55:07;;;;;;;0.73;0.57;;;18.60;99.90;;;;;;5082019;28;20032;-73
2022/05/30 02:57:46;;;;;;;0.00;0.00;;;18.90;99.90;;;;;;5082056;28;20540;-73
2022/05/30 03:00:16;;;;;;;0.10;0.10;;;18.40;99.90;;;;;;5082038;28;20028;-73
2022/05/30 03:02:42;;;;;;;3.15;2.92;;;17.70;99.90;;;;;;5084268;28;20027;-73
2022/05/30 03:05:11;;;;;;;0.55;0.47;;;17.30;99.90;;;;;;5088308;28;20069;-74
2022/05/30 03:07:37;;;;;;;0.10;0.10;;;17.20;99.90;;;;;;5081017;28;20026;-74
2022/05/30 03:10:06;;;;;;;1.88;1.17;;;17.00;99.90;;;;;;5082023;28;20028;-75
2022/05/30 03:12:32;;;;;;;0.20;0.20;;;16.70;99.90;;;;;;5060219;28;20031;-73
2022/05/30 03:14:59;;;;;;;0.00;0.00;;;17.10;99.90;;;;;;5079769;28;20077;-74
2022/05/30 03:17:25;;;;;;;0.80;0.75;;;17.80;99.90;;;;;;5077370;28;20020;-74
2022/05/30 03:19:52;;;;;;;0.00;0.00;;;18.60;99.90;;;;;;5073448;28;20522;-75
2022/05/30 03:22:18;;;;;;;0.00;0.00;;;19.40;99.90;;;;;;5082735;28;20032;-72
2022/05/30 03:24:44;;;;;;;0.00;0.00;;;20.10;99.90;;;;;;5082307;28;20119;-73
2022/05/30 03:27:10;;;;;;;0.45;0.45;;;20.30;99.90;;;;;;5081375;28;20126;-73
2022/05/30 03:29:36;;;;;;;0.75;0.75;;;20.00;99.90;;;;;;5080441;28;20039;-72
2022/05/30 03:32:02;;;;;;;0.52;0.52;;;20.00;99.90;;;;;;5089912;28;20517;-74
2022/05/30 03:34:31;;;;;;;0.00;0.00;;;19.30;99.90;;;;;;5086929;28;20024;-73
2022/05/30 03:36:57;;;;;;;0.60;0.20;;;19.20;99.90;;;;;;5085626;28;20020;-73
2022/05/30 03:39:23;;;;;;;0.00;0.00;;;19.10;99.90;;;;;;5085197;28;20031;-75
2022/05/30 03:41:50;;;;;;;1.45;0.17;;;19.10;99.90;;;;;;5083147;28;20030;-74
2022/05/30 03:44:16;;;;;;;0.30;0.30;;;19.50;99.90;;;;;;5088113;28;20119;-74
2022/05/30 03:46:44;;;;;;;0.00;0.00;;;20.10;99.90;;;;;;5086521;28;20063;-74
2022/05/30 03:49:10;;;;;;;2.90;0.35;;;20.80;99.90;;;;;;5086000;28;20114;-73
2022/05/30 03:51:36;;;;;;;0.10;0.10;;;20.00;99.90;;;;;;5082578;28;20093;-74
2022/05/30 03:54:02;;;;;;;0.00;0.00;;;18.60;99.90;;;;;;5082947;28;20036;-74
2022/05/30 03:56:28;;;;;;;1.00;0.80;;;18.40;99.90;;;;;;5083730;28;20012;-73
2022/05/30 03:58:54;;;;;;;0.10;0.10;;;18.00;99.90;;;;;;5083675;28;20031;-73
2022/05/30 04:01:24;;;;;;;0.17;0.00;;;18.10;99.90;;;;;;5080546;28;20503;-73
2022/05/30 04:03:50;;;;;;;0.20;0.20;;;17.80;99.90;;;;;;5079936;28;20140;-73
2022/05/30 04:06:16;;;;;;;0.05;0.05;;;18.20;99.90;;;;;;5079419;28;20061;-74
2022/05/30 04:08:42;;;;;;;0.47;0.47;;;18.10;99.90;;;;;;5076714;28;20233;-74
2022/05/30 04:11:08;;;;;;;7.47;1.75;;;18.70;99.90;;;;;;5076433;28;20058;-73
2022/05/30 04:13:34;;;;;;;0.55;0.05;;;19.00;99.90;;;;;;5079893;28;20032;-74
2022/05/30 04:16:09;;;;;;;0.00;0.00;;;19.00;99.90;;;;;;5082018;28;20053;-74
2022/05/30 04:18:35;;;;;;;0.20;0.10;;;19.00;99.90;;;;;;5079519;28;20139;-75
2022/05/30 04:21:10;;;;;;;0.05;0.05;;;18.90;99.90;;;;;;5077056;28;20373;-74
2022/05/30 04:23:36;;;;;;;0.73;0.73;;;18.10;99.90;;;;;;5076524;28;20016;-74
2022/05/30 04:26:07;;;;;;;0.00;0.00;;;17.80;99.90;;;;;;5063710;28;20115;-75
2022/05/30 04:28:33;;;;;;;0.25;0.25;;;18.10;99.90;;;;;;5082280;28;20533;-75
2022/05/30 04:30:59;;;;;;;1.38;0.98;;;18.60;99.90;;;;;;5085775;28;20032;-74
2022/05/30 04:33:27;;;;;;;0.00;0.00;;;18.40;99.90;;;;;;5083371;28;20020;-76
2022/05/30 04:35:53;;;;;;;0.00;0.00;;;18.70;99.90;;;;;;5083277;28;20024;-75
2022/05/30 04:38:19;;;;;;;1.13;0.80;;;19.20;99.90;;;;;;5081663;28;20024;-75
2022/05/30 04:40:45;;;;;;;1.65;0.75;;;18.30;99.90;;;;;;5082113;28;20061;-74
2022/05/30 04:43:11;;;;;;;0.08;0.00;;;18.30;99.90;;;;;;5081688;28;20035;-74
2022/05/30 04:45:37;;;;;;;0.00;0.00;;;18.30;99.90;;;;;;5085314;28;20106;-75
2022/05/30 04:48:04;;;;;;;0.28;0.28;;;18.90;99.90;;;;;;5086353;28;20537;-74
2022/05/30 04:50:30;;;;;;;0.47;0.47;;;18.90;99.90;;;;;;5085939;28;20040;-74
2022/05/30 04:52:56;;;;;;;0.00;0.00;;;19.10;99.90;;;;;;5086630;28;20701;-76
2022/05/30 04:55:22;;;;;;;0.45;0.45;;;19.50;99.90;;;;;;5084514;28;20090;-75
2022/05/30 04:57:50;;;;;;;1.15;0.68;;;19.20;99.90;;;;;;5085138;28;20418;-75
2022/05/30 05:00:20;;;;;;;1.25;0.45;;;18.90;99.90;;;;;;5087615;28;20029;-74
2022/05/30 05:02:46;;;;;;;0.95;0.43;;;18.20;99.90;;;;;;5086797;28;20510;-75
2022/05/30 05:05:13;;;;;;;0.00;0.00;;;18.20;99.90;;;;;;5087500;28;20143;-75
2022/05/30 05:07:53;;;;;;;1.65;1.55;;;18.40;99.90;;;;;;5083127;28;20445;-75
2022/05/30 05:10:35;;;;;;;0.00;0.00;;;19.20;99.90;;;;;;5086001;28;20031;-76
2022/05/30 05:13:01;;;;;;;0.00;0.00;;;19.60;99.90;;;;;;5066714;28;20054;-75
2022/05/30 05:15:27;;;;;;;0.38;0.38;;;19.60;99.90;;;;;;5086803;28;20362;-77
2022/05/30 05:17:55;;;;;;;1.67;1.50;;;19.70;99.90;;;;;;5089445;28;20028;-74
2022/05/30 05:20:23;;;;;;;0.10;0.10;;;19.70;99.90;;;;;;5088692;28;20119;-74
2022/05/30 05:22:50;;;;;;;0.00;0.00;;;19.80;99.90;;;;;;5082370;28;20459;-74
2022/05/30 05:25:17;;;;;;;0.00;0.00;;;19.90;99.90;;;;;;5081430;28;20039;-74
2022/05/30 05:27:44;;;;;;;0.13;0.13;;;19.80;99.90;;;;;;5082403;28;20035;-75
2022/05/30 05:30:10;;;;;;;0.15;0.15;;;20.00;99.90;;;;;;5083016;28;20440;-75
2022/05/30 05:32:36;;;;;;;0.60;0.40;;;19.60;99.90;;;;;;5076802;28;20036;-74
2022/05/30 05:35:03;;;;;;;1.25;1.20;;;19.00;99.90;;;;;;5079213;28;20036;-73
2022/05/30 05:37:29;;;;;;;0.00;0.00;;;19.20;99.90;;;;;;5086062;28;20028;-73
2022/05/30 05:39:55;;;;;;;0.00;0.00;;;19.50;99.90;;;;;;5069366;28;20036;-76
2022/05/30 05:42:21;;;;;;;0.00;0.00;;;19.70;99.90;;;;;;5086837;28;20075;-76
2022/05/30 05:44:48;;;;;;;0.00;0.00;;;19.30;99.90;;;;;;5084769;28;20114;-75
2022/05/30 05:47:14;;;;;;;0.13;0.13;;;19.80;99.90;;;;;;5085792;28;20092;-75
2022/05/30 05:49:40;;;;;;;0.00;0.00;;;20.50;99.90;;;;;;5085853;28;20028;-74
2022/05/30 05:52:06;;;;;;;0.00;0.00;;;20.60;99.30;;;;;;5085753;28;20439;-74
2022/05/30 05:54:32;;;;;;;0.00;0.00;;;20.80;99.80;;;;;;5084472;28;20432;-73
2022/05/30 05:56:58;;;;;;;3.28;3.17;;;20.40;99.90;;;;;;5066387;28;20031;-74
2022/05/30 05:59:25;;;;;;;0.00;0.00;;;20.00;99.90;;;;;;5082442;28;20024;-74
2022/05/30 06:01:51;;;;;;;0.00;0.00;;;20.80;99.90;;;;;;5084951;28;20461;-75
2022/05/30 06:04:17;;;;;;;0.00;0.00;;;20.20;99.90;;;;;;5081898;28;20122;-74
2022/05/30 06:06:46;;;;;;;1.08;1.02;;;19.90;99.90;;;;;;5083304;28;20024;-73
2022/05/30 06:09:12;;;;;;;1.92;0.70;;;20.50;99.90;;;;;;5083581;28;20078;-75
2022/05/30 06:11:38;;;;;;;0.00;0.00;;;21.00;99.90;;;;;;5081321;28;20484;-75
2022/05/30 06:14:04;;;;;;;1.85;1.75;;;21.50;99.90;;;;;;5080092;28;20052;-74
2022/05/30 06:16:37;;;;;;;1.45;0.93;;;21.70;99.60;;;;;;5085436;28;20063;-74
2022/05/30 06:19:04;;;;;;;0.00;0.00;;;20.80;99.90;;;;;;5080685;28;20104;-73
2022/05/30 06:21:32;;;;;;;1.10;1.10;;;20.60;99.90;;;;;;5082211;28;20020;-74
2022/05/30 06:23:59;;;;;;;0.00;0.00;;;20.60;99.90;;;;;;5080338;28;20484;-73
2022/05/30 06:26:26;;;;;;;0.03;0.03;;;21.40;99.90;;;;;;5084420;28;20477;-75
2022/05/30 06:28:55;;;;;;;3.45;1.27;;;21.60;98.90;;;;;;5084347;28;20032;-76
2022/05/30 06:31:27;;;;;;;0.30;0.30;;;21.20;99.90;;;;;;5063305;28;20051;-77
2022/05/30 06:33:53;;;;;;;0.25;0.25;;;20.10;99.90;;;;;;5085594;28;20036;-76
2022/05/30 06:36:22;;;;;;;0.93;0.57;;;20.50;99.90;;;;;;5084435;28;20376;-75
2022/05/30 06:38:49;;;;;;;0.00;0.00;;;19.50;99.90;;;;;;5083928;28;20032;-76
2022/05/30 06:41:19;;;;;;;0.00;0.00;;;20.30;99.90;;;;;;5086412;28;20095;-74
2022/05/30 06:43:46;;;;;;;0.10;0.08;;;21.20;99.90;;;;;;5082866;28;20028;-75
2022/05/30 06:46:14;;;;;;;0.00;0.00;;;21.20;99.90;;;;;;5081845;28;20062;-75
2022/05/30 06:48:41;;;;;;;0.20;0.10;;;21.70;99.90;;;;;;5082633;28;20024;-74
2022/05/30 06:51:13;;;;;;;0.00;0.00;;;21.40;99.90;;;;;;5083308;28;20115;-76
2022/05/30 06:53:43;;;;;;;0.03;0.03;;;20.70;99.90;;;;;;5085568;28;20020;-74
2022/05/30 06:56:16;;;;;;;0.75;0.52;;;20.60;99.90;;;;;;5087601;28;20027;-74
2022/05/30 06:58:47;;;;;;;0.00;0.00;;;20.60;99.90;;;;;;5082695;28;20028;-73
2022/05/30 07:01:14;;;;;;;0.00;0.00;;;20.70;99.90;;;;;;5085709;28;20062;-76
2022/05/30 07:03:41;;;;;;;0.32;0.32;;;21.20;99.90;;;;;;5085564;28;20035;-75
2022/05/30 07:06:10;;;;;;;0.00;0.00;;;21.40;99.90;;;;;;5084492;28;20024;-76
2022/05/30 07:08:37;;;;;;;2.85;2.60;;;21.50;99.90;;;;;;5081241;28;20341;-74
2022/05/30 07:11:03;;;;;;;0.15;0.00;;;21.90;99.90;;;;;;5081219;28;20031;-75
2022/05/30 07:13:30;;;;;;;0.00;0.00;;;21.90;98.30;;;;;;5081837;28;20066;-75
2022/05/30 07:15:57;;;;;;;0.00;0.00;;;22.00;97.50;;;;;;5079256;28;20027;-74
2022/05/30 07:18:23;;;;;;;0.93;0.35;;;22.00;96.60;;;;;;5079990;28;20066;-76
2022/05/30 07:20:56;;;;;;;0.00;0.00;;;22.00;95.90;;;;;;5079458;28;20119;-75
2022/05/30 07:23:23;;;;;;;0.00;0.00;;;22.20;98.10;;;;;;5078403;28;20067;-75
2022/05/30 07:25:50;;;;;;;0.00;0.00;;;22.50;99.90;;;;;;5084206;28;20031;-74
2022/05/30 07:28:16;;;;;;;0.40;0.40;;;22.70;97.70;;;;;;5080212;28;20465;-74
2022/05/30 07:30:42;;;;;;;0.30;0.30;;;21.40;99.90;;;;;;5081570;28;20070;-74
2022/05/30 07:33:09;;;;;;;0.15;0.13;;;21.70;99.90;;;;;;5078673;28;20028;-74
2022/05/30 07:35:36;;;;;;;0.15;0.15;;;21.60;99.90;;;;;;5083971;28;20024;-75
2022/05/30 07:38:04;;;;;;;0.10;0.10;;;22.00;99.90;;;;;;5084403;28;20040;-74
2022/05/30 07:40:31;;;;;;;0.00;0.00;;;22.30;99.90;;;;;;5080479;28;20021;-75
2022/05/30 07:42:57;;;;;;;0.00;0.00;;;22.60;99.90;;;;;;5082805;28;20020;-74
2022/05/30 07:45:26;;;;;;;2.78;2.63;;;21.30;99.90;;;;;;5083938;28;20484;-76
2022/05/30 07:47:53;;;;;;;0.00;0.00;;;20.90;99.90;;;;;;5084110;28;20423;-75
2022/05/30 07:50:19;;;;;;;0.00;0.00;;;20.70;99.90;;;;;;5086100;28;20492;-73
2022/05/30 07:52:46;;;;;;;0.00;0.00;;;20.60;99.90;;;;;;5086280;28;20050;-75
2022/05/30 07:55:12;;;;;;;0.13;0.10;;;21.10;99.90;;;;;;5083455;28;20151;-75
2022/05/30 07:58:04;;;;;;;0.00;0.00;;;21.40;99.90;;;;;;5088123;28;20020;-75
2022/05/30 08:00:33;;;;;;;0.00;0.00;;;21.50;99.90;;;;;;5083357;28;20335;-75
2022/05/30 08:03:00;;;;;;;0.00;0.00;;;21.40;99.90;;;;;;5086763;28;20020;-74
2022/05/30 08:05:26;;;;;;;4.38;1.10;;;21.40;99.90;;;;;;5083330;28;20067;-74
2022/05/30 08:07:52;;;;;;;0.00;0.00;;;21.40;99.90;;;;;;5080970;28;20023;-75
2022/05/30 08:10:20;;;;;;;0.38;0.38;;;21.30;99.90;;;;;;5085199;28;20525;-75
2022/05/30 08:12:49;;;;;;;0.10;0.10;;;21.40;99.90;;;;;;5086995;28;20055;-75
2022/05/30 08:15:16;;;;;;;0.28;0.28;;;21.80;99.90;;;;;;5084160;28;20614;-75
2022/05/30 08:17:42;;;;;;;1.20;1.15;;;21.60;99.90;;;;;;5084658;28;20028;-75
2022/05/30 08:20:14;;;;;;;0.45;0.45;;;21.70;99.90;;;;;;5085774;28;20062;-75
2022/05/30 08:22:41;;;;;;;0.00;0.00;;;21.80;99.90;;;;;;5084884;28;20410;-76
2022/05/30 08:25:17;;;;;;;0.00;0.00;;;21.40;99.90;;;;;;5078844;28;20020;-76
2022/05/30 08:27:44;;;;;;;0.65;0.65;;;21.10;99.90;;;;;;5081203;28;20697;-78
2022/05/30 08:30:12;;;;;;;0.00;0.00;;;21.20;99.90;;;;;;5083180;28;20054;-76
2022/05/30 08:32:41;;;;;;;0.00;0.00;;;21.40;99.90;;;;;;5083912;28;20042;-76
2022/05/30 08:35:09;;;;;;;0.00;0.00;;;21.40;99.90;;;;;;5085578;28;20135;-75
2022/05/30 08:37:37;;;;;;;0.10;0.10;;;21.60;99.90;;;;;;5080066;28;20028;-74
2022/05/30 08:43:15;;;;;;;0.00;0.00;;;21.80;99.90;;;;;;5081919;28;20464;-75
2022/05/30 08:45:42;;;;;;;0.00;0.00;;;21.40;99.90;;;;;;5074326;28;20059;-75
2022/05/30 08:48:14;;;;;;;0.00;0.00;;;21.80;99.90;;;;;;5072981;28;20027;-74
2022/05/30 08:50:55;;;;;;;0.00;0.00;;;22.00;99.90;;;;;;5081328;28;20488;-74
2022/05/30 08:53:46;;;;;;;0.10;0.10;;;22.10;99.90;;;;;;5076267;28;20024;-75
2022/05/30 08:56:34;;;;;;;0.00;0.00;;;22.40;99.90;;;;;;5077399;28;20145;-76
2022/05/30 08:59:18;;;;;;;0.00;0.00;;;22.50;99.70;;;;;;5078281;28;20035;-74
2022/05/30 09:01:50;;;;;;;0.00;0.00;;;22.20;99.90;;;;;;5076075;28;20147;-74
2022/05/30 09:04:19;;;;;;;0.10;0.10;;;22.00;99.90;;;;;;5074167;28;20028;-75
2022/05/30 09:06:56;;;;;;;0.28;0.28;;;21.80;99.90;;;;;;5061557;28;20028;-76
2022/05/30 09:09:32;;;;;;;7.78;7.22;;;20.60;99.90;;;;;;5078817;28;20031;-74
2022/05/30 09:12:32;;;;;;;0.90;0.90;;;20.30;99.90;;;;;;5078866;28;20523;-73
2022/05/30 09:15:24;;;;;;;0.00;0.00;;;20.30;99.90;;;;;;5056133;28;20048;-73
2022/05/30 09:18:09;;;;;;;0.00;0.00;;;21.00;99.90;;;;;;5085043;28;20016;-74
2022/05/30 09:20:37;;;;;;;4.63;4.05;;;21.10;99.90;;;;;;5083532;28;20035;-73
2022/05/30 09:23:05;;;;;;;0.30;0.30;;;21.40;99.90;;;;;;5083464;28;20270;-72
2022/05/30 09:25:55;;;;;;;0.00;0.00;;;20.90;99.90;;;;;;5083411;28;20028;-72
2022/05/30 09:28:21;;;;;;;0.00;0.00;;;20.90;99.90;;;;;;5087703;28;20047;-73
2022/05/30 09:31:06;;;;;;;0.50;0.30;;;20.90;99.90;;;;;;5084589;28;20025;-74
2022/05/30 09:33:33;;;;;;;0.00;0.00;;;21.60;99.90;;;;;;5080928;28;20032;-73
2022/05/30 09:36:27;;;;;;;1.50;0.98;;;21.10;99.90;;;;;;5083051;28;20051;-74
2022/05/30 09:39:02;;;;;;;0.65;0.65;;;20.20;99.90;;;;;;5078016;28;20085;-74
2022/05/30 09:41:31;;;;;;;0.03;0.03;;;19.90;99.90;;;;;;5082159;28;20029;-73
2022/05/30 09:44:04;;;;;;;0.10;0.10;;;20.50;99.90;;;;;;5082173;28;20035;-73
2022/05/30 09:46:35;;;;;;;0.00;0.00;;;20.40;99.90;;;;;;5077533;28;20016;-75
2022/05/30 09:49:03;;;;;;;0.00;0.00;;;21.00;99.90;;;;;;5083629;28;20163;-73
2022/05/30 09:51:42;;;;;;;0.00;0.00;;;21.50;99.90;;;;;;5078962;28;20044;-73
2022/05/30 09:54:11;;;;;;;0.00;0.00;;;22.00;99.90;;;;;;5079665;28;20036;-73
2022/05/30 09:56:42;;;;;;;0.00;0.00;;;22.00;99.90;;;;;;5079181;28;20103;-76
2022/05/30 09:59:31;;;;;;;0.55;0.20;;;22.20;99.90;;;;;;5081027;28;20046;-75
2022/05/30 10:01:57;;;;;;;0.10;0.10;;;21.70;99.30;;;;;;5080013;28;20425;-75
2022/05/30 10:04:42;;;;;;;0.10;0.10;;;21.40;99.90;;;;;;5057374;28;20409;-74
2022/05/30 10:07:11;;;;;;;0.38;0.38;;;21.20;99.90;;;;;;5080706;28;20039;-74
2022/05/30 10:09:52;;;;;;;0.00;0.00;;;21.10;99.90;;;;;;5080620;28;20115;-75
2022/05/30 10:12:51;;;;;;;0.00;0.00;;;21.40;99.90;;;;;;5077406;28;20028;-72
2022/05/30 10:15:29;;;;;;;0.00;0.00;;;21.30;99.90;;;;;;5071268;28;20128;-73
2022/05/30 10:18:19;;;;;;;0.00;0.00;;;21.60;99.90;;;;;;5081303;28;20389;-72
2022/05/30 10:21:18;;;;;;;0.32;0.32;;;21.80;98.80;;;;;;5074631;28;20119;-73
2022/05/30 10:30:40;;;;;;;4.22;3.92;;;21.60;96.30;;;;;;5083829;28;20043;-73
2022/05/30 10:33:12;;;;;;;0.13;0.13;;;21.80;95.00;;;;;;5085008;28;20499;-72
2022/05/30 10:36:03;;;;;;;0.10;0.10;;;21.90;92.50;;;;;;5086314;28;20412;-73
2022/05/30 10:38:34;;;;;;;0.00;0.00;;;21.40;95.60;;;;;;5086858;28;20089;-72
2022/05/30 10:41:07;;;;;;;0.57;0.57;;;21.10;97.80;;;;;;5062836;28;20460;-73
2022/05/30 10:44:04;;;;;;;0.00;0.00;;;20.90;99.60;;;;;;5077343;28;20810;-73
2022/05/30 10:46:57;;;;;;;0.00;0.00;;;20.90;98.60;;;;;;5076946;28;20043;-72
2022/05/30 10:49:26;;;;;;;0.00;0.00;;;20.70;99.90;;;;;;5084352;28;20099;-73
2022/05/30 10:52:06;;;;;;;0.43;0.43;;;21.00;99.90;;;;;;5082677;28;20563;-73
2022/05/30 10:54:48;;;;;;;0.00;0.00;;;20.80;98.60;;;;;;5086743;28;20040;-74
2022/05/30 10:57:46;;;;;;;0.00;0.00;;;21.00;99.90;;;;;;5083283;28;20030;-73
2022/05/30 11:00:16;;;;;;;0.40;0.40;;;20.90;98.10;;;;;;5077038;28;20472;-73
2022/05/30 11:03:21;;;;;;;0.25;0.25;;;20.10;99.90;;;;;;5081263;28;20035;-74
2022/05/30 11:06:08;;;;;;;0.00;0.00;;;20.30;99.90;;;;;;5083621;28;20123;-74
2022/05/30 11:09:01;;;;;;;0.00;0.00;;;20.60;99.90;;;;;;5085372;28;21372;-74
2022/05/30 11:11:43;;;;;;;0.00;0.00;;;20.80;99.90;;;;;;5081401;28;20051;-75
2022/05/30 11:14:41;;;;;;;0.32;0.32;;;20.90;99.50;;;;;;5079189;28;20032;-73
2022/05/30 11:17:12;;;;;;;0.00;0.00;;;20.90;96.80;;;;;;5084809;28;20388;-74
2022/05/30 11:19:50;;;;;;;0.13;0.13;;;20.70;96.90;;;;;;5084773;28;20033;-74
2022/05/30 11:22:31;;;;;;;0.00;0.00;;;20.40;99.00;;;;;;5081607;28;20027;-73
2022/05/30 11:24:57;;;;;;;0.00;0.00;;;20.60;99.90;;;;;;5078593;28;20067;-74
2022/05/30 11:27:52;;;;;;;0.00;0.00;;;21.00;95.50;;;;;;5084866;28;20024;-74
2022/05/30 11:31:02;;;;;;;0.00;0.00;;;21.30;94.20;;;;;;5064234;28;20040;-73
2022/05/30 11:33:37;;;;;;;0.00;0.00;;;21.40;93.10;;;;;;5082121;28;20069;-74
2022/05/30 11:36:18;;;;;;;0.00;0.00;;;21.80;93.30;;;;;;5083172;28;20045;-74
2022/05/30 11:38:47;;;;;;;0.00;0.00;;;22.00;94.90;;;;;;5081732;28;20016;-74
2022/05/30 11:41:38;;;;;;;0.00;0.00;;;21.70;92.50;;;;;;5080868;28;20051;-74
2022/05/30 11:44:36;;;;;;;0.10;0.05;;;21.70;92.70;;;;;;5085206;28;20032;-72
2022/05/30 11:47:23;;;;;;;0.00;0.00;;;20.80;94.40;;;;;;5068932;28;20047;-73
2022/05/30 11:50:12;;;;;;;0.00;0.00;;;20.70;96.90;;;;;;5076591;28;20028;-74
2022/05/30 11:52:52;;;;;;;0.00;0.00;;;20.70;95.70;;;;;;5077162;28;20040;-74
2022/05/30 11:55:27;;;;;;;0.00;0.00;;;20.70;96.90;;;;;;5082666;28;20142;-75
2022/05/30 11:58:10;;;;;;;0.08;0.08;;;20.60;94.60;;;;;;5079968;28;20038;-73
2022/05/30 12:00:47;;;;;;;0.00;0.00;;;20.50;94.60;;;;;;5079322;28;20028;-75
2022/05/30 12:03:48;;;;;;;0.00;0.00;;;20.50;95.90;;;;;;5078659;28;20032;-74
2022/05/30 12:06:34;;;;;;;0.00;0.00;;;20.70;96.00;;;;;;5050017;28;20063;-74
2022/05/30 12:09:13;;;;;;;0.00;0.00;;;20.80;96.70;;;;;;5085928;28;20028;-74
2022/05/30 12:11:57;;;;;;;0.00;0.00;;;20.40;96.80;;;;;;5081317;28;20021;-74
2022/05/30 12:14:23;;;;;;;0.00;0.00;;;20.50;97.50;;;;;;5081117;28;20503;-74
2022/05/30 12:17:16;;;;;;;0.00;0.00;;;20.70;97.20;;;;;;5083110;28;20032;-74
2022/05/30 12:25:46;;;;;;;0.00;0.00;;;20.30;99.90;;;;;;5082401;28;20451;-73
2022/05/30 12:28:27;;;;;;;0.00;0.00;;;20.30;99.90;;;;;;5081772;28;20745;-74
2022/05/30 12:30:59;;;;;;;0.00;0.00;;;20.30;99.90;;;;;;5081234;28;20028;-73
2022/05/30 12:33:31;;;;;;;0.00;0.00;;;20.40;99.90;;;;;;5079782;28;20444;-71
2022/05/30 12:36:26;;;;;;;0.00;0.00;;;20.60;99.90;;;;;;5082567;28;20476;-73
2022/05/30 12:38:53;;;;;;;0.00;0.00;;;20.60;99.90;;;;;;5077278;28;20040;-72
2022/05/30 12:41:22;;;;;;;0.00;0.00;;;20.70;99.90;;;;;;5079969;28;20025;-74
2022/05/30 12:43:49;;;;;;;0.00;0.00;;;20.80;99.90;;;;;;5080186;28;20468;-74
2022/05/30 12:46:24;;;;;;;0.00;0.00;;;21.00;99.80;;;;;;5087249;28;20032;-75
2022/05/30 12:48:53;;;;;;;0.05;0.05;;;21.10;98.70;;;;;;5089520;28;20367;-74
2022/05/30 12:51:23;;;;;;;0.00;0.00;;;20.90;98.80;;;;;;5084704;28;20081;-75
2022/05/30 12:53:58;;;;;;;0.00;0.00;;;20.50;99.90;;;;;;5085746;28;20056;-72
2022/05/30 12:56:39;;;;;;;0.00;0.00;;;20.60;99.90;;;;;;5085609;28;20024;-73
2022/05/30 12:59:11;;;;;;;0.00;0.00;;;20.60;99.90;;;;;;5086110;28;20028;-74
2022/05/30 13:01:43;;;;;;;0.00;0.00;;;20.40;99.90;;;;;;5082576;28;20074;-74
2022/05/30 13:04:21;;;;;;;0.13;0.13;;;20.30;99.90;;;;;;5081749;28;20390;-74
2022/05/30 13:07:01;;;;;;;0.00;0.00;;;20.30;99.90;;;;;;5083635;28;20024;-74
2022/05/30 13:09:40;;;;;;;0.00;0.00;;;20.40;99.90;;;;;;5081797;28;20044;-74
2022/05/30 13:12:14;;;;;;;0.00;0.00;;;20.40;99.50;;;;;;5083614;28;20039;-73
2022/05/30 13:15:08;;;;;;;0.00;0.00;;;20.30;99.00;;;;;;5086062;28;20043;-74
2022/05/30 13:17:57;;;;;;;0.00;0.00;;;20.30;99.50;;;;;;5083650;28;20582;-74
2022/05/30 13:20:43;;;;;;;0.00;0.00;;;20.30;98.50;;;;;;5086197;28;20430;-73
2022/05/30 13:23:09;;;;;;;0.00;0.00;;;20.00;99.90;;;;;;5088991;28;20508;-73
2022/05/30 13:25:47;;;;;;;0.00;0.00;;;19.80;99.90;;;;;;5088401;28;20032;-73
2022/05/30 13:28:21;;;;;;;0.00;0.00;;;19.80;99.90;;;;;;5086016;28;20424;-73
2022/05/30 13:30:48;;;;;;;0.00;0.00;;;19.70;99.90;;;;;;5085570;28;20384;-74
2022/05/30 13:33:28;;;;;;;0.00;0.00;;;19.60;99.90;;;;;;5082523;28;20096;-72
2022/05/30 13:35:58;;;;;;;0.00;0.00;;;19.70;99.90;;;;;;5087511;28;20024;-74
2022/05/30 13:38:42;;;;;;;0.00;0.00;;;19.50;99.90;;;;;;5084434;28;20028;-73
2022/05/30 13:41:15;;;;;;;0.00;0.00;;;19.60;99.90;;;;;;5086044;28;20012;-74